the time You need

Montecoronaro MTB

Montecoronaro, Forlì-Cesena   Italy

domenica 07 agosto 2016

Percorsi

MEDIO - 28.0 Km

 

LUNGO - 28.0 Km

 

CORTO - 15.0 Km

Servizi

ADSCOSTPunti KS Ranking

Chip

Circuiti

Romagna Bike Cup

Ente

UISP

CLASSIFICA

MEDIO - 28.0 Km

Pos Atleta Sesso Cat PosC Team Tempo Media RTime
1 LUSA MORGAN M E-BIKE 1 MTB CESENA 01:14:56.85 22,42 01:14:56.85
2 MANUZZI MARCO M E-BIKE 2 BAD SKULL ASD 01:18:31.60 21,40 01:18:31.60
3 TORREGGIANI ANDREA M E-BIKE 3 ASD LEONARDI RACING TEAM 01:23:55.58 20,02 01:23:55.58
4 TRIOSSI DAVIDE M E-BIKE 4 INDIVIDUALE 01:32:49.52 18,10 01:32:49.52

LUNGO - 28.0 Km

Pos Atleta Sesso Cat PosC Team Tempo Media RTime
Sq. BATTELLI SIMONE M M2 - ASCD VALLE DEL CONCA 00:37:52.30 44,37 00:37:52.30
1 PEZZI FABRIZIO M M4 1 AVIS PRATOVECCHIO-ERREPI-LEE COUGAN 01:28:18.75 19,03 01:28:18.75
2 PUGLISI DANIELE M ELMT 1 ASD BLACK ROAD 01:31:06.22 18,44 01:31:06.22
3 FABBRI CHRISTIAN M M3 1 TEAM PASSION FAENTINA 01:32:07.47 18,24 01:32:07.47
4 URBINATI LUCA M M1 1 TEAM MONDOBICI TECNOPLAST 01:32:10.10 18,23 01:32:10.10
5 BRAVACCINI MATTEO M M1 2 COMERO BIKE 01:32:37.25 18,14 01:32:37.25
6 GALAMINI MAURIZIO M M5 1 BARACCA LUGO CORSA MTB 01:32:48.26 18,10 01:32:48.26
7 GARELLI DAVIDE M M2 1 ASD POLISPORTIVA SANMAURESE NOB 01:33:25.14 17,98 01:33:25.14
8 POLVERINO ANDREA M M1 3 KTM FORTI E LIBERI 01:34:13.25 17,83 01:34:13.25
9 ACCORDI LUCA M ELMT 2 OSTERIA BIKE ASD 01:34:14.73 17,83 01:34:14.73
10 BENDINI MAINARDI ANTONIO M M4 2 BD FAST 01:34:15.23 17,82 01:34:15.23
11 TIBERI MATTEO M M1 4 TEAM MONDOBICI TECNOPLAST 01:35:37.74 17,57 01:35:37.74
12 BUSSI SIMONE M M2 2 VENTURI ADVENTURE TEAM 01:35:48.92 17,54 01:35:48.92
13 RENZI NICOLA M M3 2 PROBIKERS 01:36:08.24 17,48 01:36:08.24
14 PERINI GILBERTO M M5 2 AVIS PRATOVECCHIO-ERREPI-LEE COUGAN 01:36:41.00 17,38 01:36:41.00
15 BOVINO MARIO M M4 3 KTM FORTI E LIBERI 01:37:39.23 17,20 01:37:39.23
16 CHIARINI LUCA M M2 3 TEAM PASSION FAENTINA 01:37:42.99 17,20 01:37:42.99
17 ZAMA LORENZO M M1 5 TEAM PASSION FAENTINA 01:38:35.22 17,04 01:38:35.22
18 ALPI DEVIS M M2 4 MARRADI BIKE 01:38:40.48 17,03 01:38:40.48
19 BARBERINI ALESSANDRO M ELMT 3 TEAM NOB JOLLYWEAR 01:38:40.73 17,03 01:38:40.73
20 RIGHI GIORGIO M M1 6 BAD SKULL ASD 01:39:04.24 16,96 01:39:04.24
21 CURCIO MARCO M M3 3 KTM FORTI E LIBERI 01:39:07.87 16,95 01:39:07.87
22 PARINI CARLO M M3 4 VITAMINA TEAM 01:39:10.48 16,94 01:39:10.48
23 GHETTI WILMER M M4 4 GS TORPADO SURFING SHOP SPORT PROMOTION 01:39:15.98 16,93 01:39:15.98
24 FIORINI FABIO M M5 3 KTM FORTI E LIBERI 01:39:22.67 16,91 01:39:22.67
25 FOSCHI CRISTIAN M M3 5 BARACCA LUGO CORSA MTB 01:39:44.73 16,84 01:39:44.73
26 GIOVANNINI FABIO M M4 5 SAN MARINO RACE TEAM 01:39:51.99 16,83 01:39:51.99
27 CEREDI DANIELE M M2 5 TEAM ESSERE E MTBICIO 01:40:42.98 16,68 01:40:42.98
28 BOCCALI ANGELO M M3 6 TEAM MONDOBICI TECNOPLAST 01:41:10.16 16,61 01:41:10.16
29 PELLEGRINO PARIDE M M4 6 TEAM TORPEDO BIKE 01:41:15.73 16,59 01:41:15.73
30 LEONI GERMANO M M5 4 TEAM PASSION FAENTINA 01:41:28.47 16,56 01:41:28.47
31 COLLINI FRANCESCO M M1 7 GS BULGARNO´ BIKE 2008 01:41:33.48 16,54 01:41:33.48
32 GUIDI MIRCO M M3 7 SAN MARINO RACE TEAM 01:42:01.47 16,47 01:42:01.47
33 MANIGRASSO GIOVANNI M M4 7 ASD ONLYOFF DUE RUOTE 01:42:28.97 16,40 01:42:28.97
34 DAL PRATO MIRKO M M1 8 TEAM PASSION FAENTINA 01:42:50.97 16,34 01:42:50.97
35 MIKHAILOUSKI SERGHEY M M3 8 TEAM MONDOBICI TECNOPLAST 01:42:54.20 16,33 01:42:54.20
36 GUGLIELMI MATTEO M M3 9 TEAM BIKE COCIF.COM ASD 01:43:07.47 16,29 01:43:07.47
37 GOBBI STEFANO M M1 9 ASCD VALLE DEL CONCA 01:43:08.80 16,29 01:43:08.80
38 RICEPUTI LUCA M M2 6 TEAM ESSERE E MTBICIO 01:43:27.22 16,24 01:43:27.22
39 GRILLI LUCA M M2 7 ASDC VALLE DEL CONCA NORDIC WALKING 01:43:32.96 16,23 01:43:32.96
40 SALVATORI STEFANO M M6 1 KTM FORTI E LIBERI 01:43:34.23 16,22 01:43:34.23
41 EUSEBI LORENZO M ELMT 4 ASD TEAM BIKE VALCONCA 01:43:35.97 16,22 01:43:35.97
42 RAGGINI ROBERTO M M5 5 SCORPION BIKE MTB 01:43:39.83 16,21 01:43:39.83
43 GUGLIELMI THOMAS M M2 8 SPACCO ASD 01:43:46.22 16,19 01:43:46.22
44 GHISELLI MICHELE M M2 9 A.S.D. I MUFLONI RACING TEAM 01:43:55.97 16,17 01:43:55.97
45 CAVICCHI CRISTIAN M M3 10 POL. YOUNG LINE 01:44:02.48 16,15 01:44:02.48
46 IAMMARINO GIANLUCA M M3 11 TEAM ESSERE E MTBICIO 01:45:04.19 15,99 01:45:04.19
47 PRIMAVERI GIANFRANCO M M6 2 TEAM SCOTT PASQUINI STELLA AZZURRA 01:45:05.41 15,99 01:45:05.41
48 GREGORI DANIELE M M3 12 COMERO BIKE 01:45:14.13 15,96 01:45:14.13
49 FRANCIONI GIULIO M ELMT 5 TEAM BIKE LUNANO 01:45:14.13 15,96 01:45:14.13
50 DELLABIANCIA MATTEO M ELMT 6 TEAM CINGOLANI - SPECIALIZED 01:46:34.97 15,76 01:46:34.97
51 ROSSI ANDREA M M4 8 BARACCA LUGO CORSA MTB 01:46:45.47 15,74 01:46:45.47
52 MAGALOTTI DAVIDE M M2 10 SPACCO ASD 01:47:37.71 15,61 01:47:37.71
53 SANTI DANILO M M3 13 TEAM BIKE 2000 ASD 01:47:41.20 15,60 01:47:41.20
54 CAVIOLI DANIELE M M1 10 ASD LE SALINE NATURA E SPORT 01:47:50.46 15,58 01:47:50.46
55 PALANCA GIANLUCA M M4 9 SPACCO ASD 01:47:53.33 15,57 01:47:53.33
56 PRUNI PAOLO M M4 10 KTM FORTI E LIBERI 01:48:02.95 15,55 01:48:02.95
57 BONFINI ROBERTO M M4 11 SAN MARINO RACE TEAM 01:48:11.17 15,53 01:48:11.17
58 SPINELLI SIMONLUCA M M1 11 BAD SKULL ASD 01:48:30.44 15,48 01:48:30.44
59 PRETOLANI TIBERIO M M5 6 ASD IMOLA BIKE 01:48:31.87 15,48 01:48:31.87
60 CONTI LUCA M M3 14 AVIS PRATOVECCHIO-ERREPI-LEE COUGAN 01:48:50.31 15,44 01:48:50.31
61 LEARDINI GABRIELE M ELMT 7 ASD SBUBBIKERS 01:48:51.34 15,43 01:48:51.34
62 BECCI MORENO M M7 1 GRUPPO TNT 01:49:20.97 15,37 01:49:20.97
63 FANTINI MASSIMILIANO M M4 12 TEAM K-ONE ASD 01:49:22.15 15,36 01:49:22.15
64 SARTI FILIPPO M M4 13 ASD SAMBI TEAM 01:49:25.43 15,35 01:49:25.43
65 CAVALLI ALVER M M3 15 ASD LE SALINE NATURA E SPORT 01:49:34.71 15,33 01:49:34.71
66 MALAVOLTA MANUEL M M1 12 BARACCA LUGO CORSA MTB 01:50:14.69 15,24 01:50:14.69
67 STAVOLA LUCA M M1 13 ASD POLISPORTIVA SANMAURESE NOB 01:50:15.69 15,24 01:50:15.69
68 BIANCHI LUCA M M2 11 ASD TEAM BIKE VALCONCA 01:50:58.45 15,14 01:50:58.45
69 GAVANELLI LORENZO M M2 12 POL. YOUNG LINE 01:51:19.37 15,09 01:51:19.37
70 MAURO EMANUELE M ELMT 8 TEAM PASSION FAENTINA 01:51:24.94 15,08 01:51:24.94
71 MAMBELLI MARINO M M6 3 ASD TEAM COMACO 01:51:30.12 15,07 01:51:30.12
72 MONTANARI MAURO M M2 13 TEAM PASSION FAENTINA 01:51:56.69 15,01 01:51:56.69
73 LAMI FLAVIO M M6 4 SCORPION BIKE MTB 01:52:03.96 14,99 01:52:03.96
74 MANZAROLI SAURO M M4 14 SAN MARINO MTB TEAM 01:52:06.69 14,99 01:52:06.69
75 CAPECE MATTIA M M1 14 KTM FORTI E LIBERI 01:52:23.21 14,95 01:52:23.21
76 MAGRINI STEFANO M M6 5 TEAM PASSION FAENTINA 01:52:25.45 14,94 01:52:25.45
77 FABBRI FABIO M M5 7 180 BPM 01:52:26.30 14,94 01:52:26.30
78 ALEOTTI NICOLA M M3 16 ASD SESSANTALLORA MILANO MARITTIMA 01:52:27.43 14,94 01:52:27.43
79 SASDELLI MICHELE M M3 17 BAMBANA BIKE 01:52:46.70 14,90 01:52:46.70
80 SILVANI ANDREA M M1 15 COMERO BIKE 01:52:50.63 14,89 01:52:50.63
81 BABINI GIOVANNI M M6 6 SC VELOCIRAPTOR 01:52:52.94 14,88 01:52:52.94
82 MORRI MIRCO M M4 15 ASD LE SALINE NATURA E SPORT 01:53:02.39 14,86 01:53:02.39
83 MARTINI GIAN CARLO M M3 18 BARACCA LUGO CORSA MTB 01:53:23.94 14,82 01:53:23.94
84 FREGNANI SAURO M M3 19 BD FAST 01:53:29.44 14,80 01:53:29.44
85 COZZOLINO CLAUDIO M M3 20 ASD TEAM COMACO 01:53:41.19 14,78 01:53:41.19
86 SOVERA ALESSIO M M3 21 SALI IN BICI 01:53:41.57 14,78 01:53:41.57
87 NERI FABIO M M5 8 MARRADI BIKE 01:54:13.19 14,71 01:54:13.19
88 PIOGGIA LUCA M M3 22 POL. YOUNG LINE 01:54:25.93 14,68 01:54:25.93
89 QUARANTINI DAVIDE M M4 16 ASD IMOLA BIKE 01:54:26.37 14,68 01:54:26.37
90 ANTINORI MARCO M M3 23 SAN MARINO RACE TEAM 01:54:54.54 14,62 01:54:54.54
91 CASTELLARI VALERIO M M5 9 ASD LEONARDI RACING TEAM 01:55:05.70 14,60 01:55:05.70
92 MIGANI DENIS M M4 17 ASCD VALLE DEL CONCA 01:55:07.18 14,59 01:55:07.18
93 PRATELLI DAVIDE M M2 14 ASDC VALLE DEL CONCA NORDIC WALKING 01:55:24.35 14,56 01:55:24.35
94 MEDRI FRANCESCO M M5 10 BARACCA LUGO CORSA MTB 01:55:24.70 14,56 01:55:24.70
95 BONAVITA ILARIO M M5 11 SPACCO ASD 01:55:26.18 14,55 01:55:26.18
96 TALOZZI FEDERICO M M4 18 A.S.D. I MUFLONI RACING TEAM 01:55:34.70 14,54 01:55:34.70
97 CASTELLUCCI STEFANO M M4 19 180 BPM 01:55:52.95 14,50 01:55:52.95
98 LIVERANI ALESSANDRO M M4 20 TEAM PASSION FAENTINA 01:55:59.70 14,48 01:55:59.70
99 MARONI MICHELE M M2 15 GOOD BIKE AS RONCOFREDDESE 01:56:37.16 14,41 01:56:37.16
100 MATTEI DENIS M M3 24 SAN MARINO MTB TEAM 01:56:45.68 14,39 01:56:45.68
101 PARA MASSIMO M M5 12 COMERO BIKE 01:57:24.82 14,31 01:57:24.82
102 ZAGHINI MARZIO M M2 16 SPACCO ASD 01:57:34.94 14,29 01:57:34.94
103 MUCCINI FEDERICO M M4 21 ASD LE SALINE NATURA E SPORT 01:57:35.19 14,29 01:57:35.19
104 GORRIERI RICCARDO M M4 22 ASD VALMARACING TEAM 01:57:37.70 14,28 01:57:37.70
105 PEDROSI CRISTIAN M M3 25 ASD BLACK ROAD 01:57:40.03 14,28 01:57:40.03
106 PODESCHI ROBERTO M M4 23 SAN MARINO RACE TEAM 01:57:47.94 14,26 01:57:47.94
107 MAGALOTTI YURI M M4 24 GS BULGARNO´ BIKE 2008 01:57:56.19 14,25 01:57:56.19
108 DE SIMONE ALESSANDRO M M2 17 GOOD BIKE AS RONCOFREDDESE 01:57:57.06 14,24 01:57:57.06
109 AGNOLETTI MARIO M M3 26 UISP RAVENNA 01:58:07.92 14,22 01:58:07.92
110 GAVIANI FILIPPO M M1 16 BAD SKULL ASD 01:58:28.70 14,18 01:58:28.70
111 VALLICELLI MIRKO M M2 18 TEAM PASSION FAENTINA 01:58:46.95 14,15 01:58:46.95
112 MINIELLO LEO M M2 19 TEAM BIKE COCIF.COM ASD 01:58:48.17 14,14 01:58:48.17
113 CIAVARELLI PAOLO M M5 13 SC CENTRO BICI TEAM TERNI 01:58:50.60 14,14 01:58:50.60
114 PAVANI BARBARA F MW2 1 ASD IMOLA BIKE 01:59:08.45 14,10 01:59:08.45
115 MOFFA LORENZO M M2 20 ASD TOSCO-ROMAGNOLA 01:59:10.69 14,10 01:59:10.69
116 GARDINI EMANUELE M M3 27 GS BULGARNO´ 01:59:14.94 14,09 01:59:14.94
117 PISELLI ALEX M M1 17 SAN MARINO RACE TEAM 01:59:17.92 14,08 01:59:17.92
118 MAZZOLI LEONARDO M M3 28 COMERO BIKE 01:59:38.92 14,04 01:59:38.92
119 CAMPANINI GIANNI M M6 7 PEDALE CESENATE CICLI NERI 01:59:51.68 14,02 01:59:51.68
120 RESI ALESSANDRO M M2 21 AS TARTANA BIKE 02:00:27.95 13,95 02:00:27.95
121 BISSIONI LORENZO M M7 2 TEAM TORPEDO BIKE 02:00:33.42 13,94 02:00:33.42
122 MANTOVANI LUCA M M5 14 BAMBANA BIKE 02:00:34.69 13,93 02:00:34.69
123 BRIZZI GIULIANO M M4 25 ASD VALMARACING TEAM 02:00:36.42 13,93 02:00:36.42
124 CORZANI ALESSANDRO M M4 26 AS TARTANA BIKE 02:00:44.19 13,91 02:00:44.19
125 FERRONI GIUSEPPE M M3 29 AVIS PRATOVECCHIO-ERREPI-LEE COUGAN 02:00:47.41 13,91 02:00:47.41
126 GRAZIANI MARCO M M3 30 ASD GS POPPI 02:00:55.76 13,89 02:00:55.76
127 DALL´OSSO CARLO M M5 15 POL. YOUNG LINE 02:00:57.66 13,89 02:00:57.66
128 SAMPAOLI GIMMI M M2 22 COMERO BIKE 02:01:10.14 13,87 02:01:10.14
129 RONCASSAGLIA GABRIELE M M4 27 BAMBANA BIKE 02:01:22.44 13,84 02:01:22.44
130 CASTORRI DANIELE M M3 31 CICLI NERI TEAM 02:01:25.92 13,84 02:01:25.92
131 SELVA FEDERICO M M2 23 SAN MARINO MTB TEAM 02:01:39.14 13,81 02:01:39.14
132 CERONI MAURIZIO M M6 8 ASD IMOLA BIKE 02:02:12.19 13,75 02:02:12.19
133 FABIANI FABIO M M4 28 SPACCO ASD 02:02:15.43 13,74 02:02:15.43
134 RAFFAELLI SAMUELE M M2 24 TEAM MONDOBICI TECNOPLAST 02:02:46.88 13,68 02:02:46.88
135 PELLEGRINO PIERPAOLO M M2 25 ASDC VALLE DEL CONCA NORDIC WALKING 02:02:58.16 13,66 02:02:58.16
136 REALI MASSIMILIANO M M2 26 COMERO BIKE 02:02:59.05 13,66 02:02:59.05
137 MONDUZZI MORENO M M5 16 ASD SACMI 02:03:28.19 13,61 02:03:28.19
138 QUADRELLI PAOLO M M6 9 SAN MARINO RACE TEAM 02:03:35.96 13,59 02:03:35.96
139 BUBBOLINI MICHELE M M2 27 GRUPPO TNT 02:03:41.40 13,58 02:03:41.40
140 EUSEBI MAURO M M6 10 ASD TEAM BIKE VALCONCA 02:03:42.90 13,58 02:03:42.90
141 RIGHETTI PIETRO M M6 11 BAMBANA BIKE 02:03:43.46 13,58 02:03:43.46
142 PERINI DAVID M M4 29 ASD LE SALINE NATURA E SPORT 02:03:55.94 13,56 02:03:55.94
143 ROSSI FRANCESCO M ELMT 9 MTB CESENA 02:04:55.91 13,45 02:04:55.91
144 TAROZZI ROBERTO M M4 30 TEAM PASSION FAENTINA 02:04:58.50 13,44 02:04:58.50
145 ROVINELLI RICCARDO M M4 31 SPACCO ASD 02:05:26.08 13,39 02:05:26.08
146 LOMBARDI TIZIANO M M7 3 GRUPPO TNT 02:06:32.64 13,28 02:06:32.64
147 ULIVI FRANCESCO M ELMT 10 BIKELAND TEAM BIKE 2003 02:06:41.68 13,26 02:06:41.68
148 BARTOLINI VALERIA F MW2 2 TEAM TORPEDO BIKE 02:08:04.64 13,12 02:08:04.64
149 ACCIAI MAURIZIO M M6 12 GRUPPO TNT 02:08:32.92 13,07 02:08:32.92
150 MORETTI ANDREA M M2 28 COMERO BIKE 02:08:34.39 13,07 02:08:34.39
151 COLOMBO ROBERTO M M5 17 BARACCA LUGO CORSA MTB 02:09:21.42 12,99 02:09:21.42
152 MESSINA GIUSEPPE M M6 13 BAMBANA BIKE 02:09:26.90 12,98 02:09:26.90
153 MANFREDI GRAZIANO M M5 18 CICLI NERI TEAM 02:09:59.66 12,92 02:09:59.66
154 ZAFFERANI MICHELE M M2 29 SAN MARINO MTB TEAM 02:10:01.89 12,92 02:10:01.89
155 SIROTTI MATTEO M M3 32 VENTURI ADVENTURE TEAM 02:11:00.90 12,82 02:11:00.90
156 FERRI MAURO M M7 4 BAMBANA BIKE 02:11:23.82 12,79 02:11:23.82
157 GUERRINI LUCA M M1 18 COMERO BIKE 02:12:06.41 12,72 02:12:06.41
158 BABINI STEFANO M M2 30 VITAMINA TEAM 02:12:10.66 12,71 02:12:10.66
159 BARTOLONI GIANNI M M5 19 SAN MARINO MTB TEAM 02:12:21.66 12,69 02:12:21.66
160 MENGOZZI CARLO M M4 32 COMERO BIKE 02:12:22.63 12,69 02:12:22.63
161 GAMBERONI ANDREA M ELMT 11 TEAM K-ONE ASD 02:12:39.14 12,66 02:12:39.14
162 CAVULLA ANNARITA F MW2 3 ASD IMOLA BIKE 02:13:19.13 12,60 02:13:19.13
163 MANCINI GABRIELE M M2 31 COMERO BIKE 02:13:45.17 12,56 02:13:45.17
164 MORDENTI FERNANDO M M6 14 ASD TEAM COMACO 02:14:00.63 12,54 02:14:00.63
165 TONELLI ROBERTO M M7 5 COMERO BIKE 02:14:10.91 12,52 02:14:10.91
166 TORSANI FABIO M M5 20 SAN MARINO MTB TEAM 02:14:22.89 12,50 02:14:22.89
167 MURARO ANDREA M M5 21 SAN MARINO MTB TEAM 02:14:23.62 12,50 02:14:23.62
168 MAZZOLI PAOLO M M4 33 COMERO BIKE 02:14:26.15 12,50 02:14:26.15
169 BERARDUCCI DANIELE M M5 22 ASD LE SALINE NATURA E SPORT 02:16:31.87 12,31 02:16:31.87
170 IMPERIAL GIORGIO M M2 32 COMERO BIKE 02:19:14.13 12,07 02:19:14.13
171 ARLOTTI MAURIZIO M M5 23 TEAM TORPEDO BIKE 02:19:23.61 12,05 02:19:23.61
172 MAINARDI ROBERTO M M6 15 ASD LE SALINE NATURA E SPORT 02:21:30.66 11,87 02:21:30.66
173 GRANDI ENRICO M M3 33 TEAM MONDOBICI TECNOPLAST 02:22:08.15 11,82 02:22:08.15
174 CASALBONI ALESSANDRO M ELMT 12 TEAM BIKE COCIF.COM ASD 02:22:56.90 11,75 02:22:56.90
175 MORDENTI MIRKO M M3 34 VITAMINA TEAM 02:25:02.59 11,58 02:25:02.59
176 CECCOLI TONINO M M6 16 SAN MARINO RACE TEAM 02:25:05.39 11,58 02:25:05.39
177 MORDENTI LUCA M ELMT 13 AS TARTANA BIKE 02:28:25.53 11,32 02:28:25.53
178 PICCHI STEFANO M M5 24 ASD LE SALINE NATURA E SPORT 02:29:53.82 11,21 02:29:53.82
179 MAVILLA PAOLO M M6 17 TEAM PASSION FAENTINA 02:32:04.13 11,05 02:32:04.13
180 CANGINI MARINO M M5 25 AS TARTANA BIKE 02:32:04.96 11,05 02:32:04.96
181 GOLFERA FABRIZIO M M6 18 TEAM PASSION FAENTINA 02:32:35.06 11,01 02:32:35.06
182 TORSANI MAURIZIO M M6 19 ASD LE SALINE NATURA E SPORT 02:33:35.81 10,94 02:33:35.81
183 CHILLO TANIA F MW2 4 ASD ONLYOFF DUE RUOTE 02:37:31.06 10,67 02:37:31.06
184 CORTINI DONATELLA F MW2 5 TEAM PASSION FAENTINA 02:39:19.04 10,55 02:39:19.04
185 GEMINIANI CLAUDIO M M7 6 ASD TEAM COMACO 02:39:30.51 10,53 02:39:30.51
186 DE FELICE ANDREA M M3 35 TEAM DEL CAPITANO ASD 02:39:46.12 10,52 02:39:46.12
187 GRIECO ALEN M M1 19 TEAM TORPEDO BIKE 02:40:46.51 10,45 02:40:46.51
188 PAGANELLI KATIUSCIA F MW2 6 TEAM BIKE COCIF.COM ASD 02:41:31.58 10,40 02:41:31.58

CORTO - 15.0 Km

Pos Atleta Sesso Cat PosC Team Tempo Media RTime
1 MORDENTI FRANCESCO M ES 1 SC FORLIVESE 02:25:56.11 6,17 02:25:56.11